Time;durP1;ratioP1;P1;durP2;ratioP2;P2;SDS_P1;SDS_P2;PMS_P1;PMS_P2;Temp;Humidity;BMP_temperature;BMP_pressure;BME280_temperature;BME280_humidity;BME280_pressure;Samples;Min_cycle;Max_cycle;Signal;HPM_P1;HPM_P2
2022/01/31 00:01:01;;;;;;;14.90;7.00;;;1.50;99.70;;;;;;5030785;28;20538;-67
2022/01/31 00:03:30;;;;;;;16.23;6.67;;;1.50;99.70;;;;;;5030861;28;20447;-67
2022/01/31 00:05:57;;;;;;;21.60;7.00;;;1.70;99.70;;;;;;5030679;28;20535;-67
2022/01/31 00:08:24;;;;;;;15.20;6.23;;;1.80;99.70;;;;;;5030069;28;20820;-66
2022/01/31 00:10:52;;;;;;;22.50;6.37;;;1.80;99.70;;;;;;5030740;28;20473;-67
2022/01/31 00:13:22;;;;;;;19.03;6.27;;;2.10;99.70;;;;;;5030727;28;20485;-67
2022/01/31 00:15:54;;;;;;;16.70;6.00;;;2.00;99.70;;;;;;5030872;28;20531;-66
2022/01/31 00:18:22;;;;;;;18.23;6.43;;;2.00;99.70;;;;;;5030454;28;20452;-66
2022/01/31 00:20:49;;;;;;;20.37;5.90;;;1.90;99.70;;;;;;5030605;28;20481;-67
2022/01/31 00:23:15;;;;;;;16.43;6.17;;;2.00;99.70;;;;;;5030774;28;20441;-67
2022/01/31 00:25:42;;;;;;;19.17;7.00;;;2.10;99.70;;;;;;5030646;28;20503;-67
2022/01/31 00:28:09;;;;;;;16.10;6.40;;;2.40;99.70;;;;;;5030251;28;20815;-66
2022/01/31 00:30:35;;;;;;;16.80;6.03;;;2.60;99.70;;;;;;5030556;28;20539;-67
2022/01/31 00:33:02;;;;;;;14.23;5.97;;;2.50;99.70;;;;;;5030467;28;20441;-67
2022/01/31 00:35:30;;;;;;;21.60;7.30;;;2.40;99.70;;;;;;5030588;28;20855;-67
2022/01/31 00:37:57;;;;;;;18.67;7.10;;;2.40;99.70;;;;;;5030185;28;20455;-67
2022/01/31 00:40:24;;;;;;;17.30;6.57;;;2.30;99.70;;;;;;5030361;28;20472;-67
2022/01/31 00:42:50;;;;;;;16.13;7.00;;;2.30;99.70;;;;;;5030459;28;20455;-67
2022/01/31 00:45:23;;;;;;;21.33;6.70;;;2.20;99.70;;;;;;5030394;28;20456;-67
2022/01/31 00:48:00;;;;;;;13.77;6.67;;;2.30;99.70;;;;;;5030122;28;20444;-66
2022/01/31 00:50:27;;;;;;;18.43;6.80;;;2.40;99.70;;;;;;5032630;28;20476;-67
2022/01/31 00:52:55;;;;;;;16.07;6.27;;;2.60;99.70;;;;;;5034092;28;20460;-66
2022/01/31 00:55:22;;;;;;;22.20;6.83;;;2.70;99.70;;;;;;5034100;28;20490;-67
2022/01/31 00:57:49;;;;;;;16.30;6.20;;;2.60;99.70;;;;;;5033677;28;20448;-66
2022/01/31 01:00:17;;;;;;;19.40;6.97;;;2.50;99.70;;;;;;5034004;28;20464;-67
2022/01/31 01:02:44;;;;;;;21.83;6.67;;;2.50;99.70;;;;;;5034009;28;20476;-67
2022/01/31 01:05:11;;;;;;;17.00;6.67;;;2.50;99.70;;;;;;5033980;28;20499;-67
2022/01/31 01:07:38;;;;;;;15.23;6.70;;;2.40;99.70;;;;;;5033777;28;20448;-65
2022/01/31 01:10:07;;;;;;;19.40;6.90;;;2.40;99.70;;;;;;5033121;28;20858;-67
2022/01/31 01:12:34;;;;;;;16.33;7.13;;;2.40;99.70;;;;;;5033722;28;20444;-66
2022/01/31 01:15:01;;;;;;;19.07;7.23;;;2.60;99.70;;;;;;5033657;28;20936;-67
2022/01/31 01:17:27;;;;;;;20.23;6.83;;;2.50;99.70;;;;;;5033664;28;20448;-67
2022/01/31 01:19:54;;;;;;;18.47;7.80;;;2.50;99.70;;;;;;5033092;28;20480;-67
2022/01/31 01:22:21;;;;;;;20.53;7.60;;;2.50;99.70;;;;;;5040575;22;20523;-65
2022/01/31 01:24:48;;;;;;;18.10;6.63;;;2.40;99.70;;;;;;5033615;28;20437;-65
2022/01/31 01:27:19;;;;;;;20.33;6.93;;;2.30;99.70;;;;;;5033547;28;20511;-66
2022/01/31 01:29:46;;;;;;;19.57;6.50;;;2.40;99.70;;;;;;5033100;28;20830;-65
2022/01/31 01:32:13;;;;;;;19.57;6.77;;;2.30;99.70;;;;;;5033380;28;20499;-65
2022/01/31 01:34:40;;;;;;;19.00;6.70;;;2.30;99.70;;;;;;5033293;28;20476;-65
2022/01/31 01:37:07;;;;;;;17.17;6.83;;;2.40;99.70;;;;;;5033354;28;20959;-65
2022/01/31 01:39:34;;;;;;;19.60;7.00;;;2.40;99.70;;;;;;5032892;28;20444;-65
2022/01/31 01:42:01;;;;;;;23.57;8.37;;;2.20;99.70;;;;;;5033261;28;20456;-65
2022/01/31 01:44:45;;;;;;;20.67;7.50;;;2.10;99.70;;;;;;5033226;28;20475;-65
2022/01/31 01:47:12;;;;;;;19.63;6.83;;;2.30;99.70;;;;;;5033065;28;20452;-65
2022/01/31 01:49:39;;;;;;;19.30;7.60;;;2.40;99.70;;;;;;5032845;28;20449;-64
2022/01/31 01:52:07;;;;;;;20.90;7.60;;;2.40;99.70;;;;;;5033013;28;20906;-65
2022/01/31 01:54:34;;;;;;;17.67;7.03;;;2.40;99.70;;;;;;5032959;28;20477;-65
2022/01/31 01:57:02;;;;;;;22.40;8.10;;;2.40;99.70;;;;;;5033063;28;20543;-65
2022/01/31 01:59:32;;;;;;;22.73;7.07;;;2.30;99.70;;;;;;5032400;28;20449;-66
2022/01/31 02:02:01;;;;;;;17.63;7.33;;;2.30;99.70;;;;;;5032663;28;20844;-65
2022/01/31 02:04:27;;;;;;;22.60;7.33;;;2.20;99.70;;;;;;5032915;28;20440;-65
2022/01/31 02:06:54;;;;;;;16.83;7.17;;;2.20;99.70;;;;;;5032814;28;20440;-65
2022/01/31 02:09:23;;;;;;;21.13;6.90;;;2.20;99.70;;;;;;5031926;28;20827;-65
2022/01/31 02:11:49;;;;;;;20.23;6.50;;;2.30;99.70;;;;;;5032660;28;20469;-65
2022/01/31 02:14:17;;;;;;;21.30;6.60;;;2.20;99.70;;;;;;5032736;28;20859;-65
2022/01/31 02:16:44;;;;;;;18.40;6.63;;;2.20;99.70;;;;;;5032512;28;20475;-65
2022/01/31 02:19:15;;;;;;;16.97;6.73;;;2.30;99.70;;;;;;5032240;28;20448;-65
2022/01/31 02:21:43;;;;;;;18.60;7.10;;;2.40;99.70;;;;;;5032343;28;20495;-65
2022/01/31 02:24:11;;;;;;;20.80;6.80;;;2.30;99.70;;;;;;5032473;28;20445;-65
2022/01/31 02:26:38;;;;;;;19.57;6.47;;;2.10;99.70;;;;;;5032370;28;20449;-65
2022/01/31 02:29:05;;;;;;;20.30;6.80;;;2.10;99.70;;;;;;5031954;28;20839;-65
2022/01/31 02:31:32;;;;;;;19.37;7.50;;;2.10;99.70;;;;;;5032205;28;20460;-65
2022/01/31 02:33:58;;;;;;;20.37;6.60;;;2.20;99.70;;;;;;5032132;28;20485;-65
2022/01/31 02:36:26;;;;;;;13.87;6.10;;;2.30;99.70;;;;;;5032320;28;20445;-65
2022/01/31 02:38:54;;;;;;;20.07;7.03;;;2.20;99.70;;;;;;5031786;28;20510;-65
2022/01/31 02:41:20;;;;;;;21.70;7.20;;;2.20;99.70;;;;;;5032000;28;20468;-65
2022/01/31 02:43:50;;;;;;;18.03;6.00;;;2.30;99.70;;;;;;5032092;28;20463;-65
2022/01/31 02:46:17;;;;;;;21.67;6.20;;;2.80;99.70;;;;;;5031939;28;20452;-65
2022/01/31 02:48:44;;;;;;;24.97;7.70;;;2.50;99.70;;;;;;5031598;28;20452;-65
2022/01/31 02:51:12;;;;;;;19.73;6.33;;;2.40;99.70;;;;;;5031827;28;20983;-65
2022/01/31 02:53:41;;;;;;;15.23;5.90;;;2.40;99.70;;;;;;5031842;28;20448;-66
2022/01/31 02:56:10;;;;;;;17.13;6.10;;;2.30;99.70;;;;;;5031855;28;20515;-65
2022/01/31 02:58:36;;;;;;;19.00;6.13;;;2.20;99.70;;;;;;5031256;28;20495;-65
2022/01/31 03:01:04;;;;;;;20.00;6.10;;;2.20;99.70;;;;;;5031708;28;20465;-65
2022/01/31 03:03:30;;;;;;;17.50;6.30;;;2.20;99.70;;;;;;5031713;28;20445;-65
2022/01/31 03:05:58;;;;;;;20.13;6.70;;;2.30;99.70;;;;;;5031754;28;20494;-65
2022/01/31 03:08:24;;;;;;;15.67;6.30;;;2.30;99.70;;;;;;5030964;28;20472;-66
2022/01/31 03:10:51;;;;;;;16.87;6.40;;;2.30;99.70;;;;;;5031525;28;20464;-65
2022/01/31 03:13:20;;;;;;;15.50;5.87;;;2.50;99.70;;;;;;5030886;28;20456;-65
2022/01/31 03:15:48;;;;;;;15.33;5.60;;;2.50;99.70;;;;;;5031526;28;20538;-65
2022/01/31 03:18:15;;;;;;;14.47;6.07;;;2.40;99.70;;;;;;5031139;28;20464;-65
2022/01/31 03:20:41;;;;;;;17.97;6.00;;;2.40;99.70;;;;;;5031272;28;22304;-65
2022/01/31 03:23:08;;;;;;;15.57;7.10;;;2.50;99.70;;;;;;5031463;28;21138;-65
2022/01/31 03:25:35;;;;;;;15.50;6.20;;;2.50;99.70;;;;;;5031560;28;20440;-65
2022/01/31 03:28:02;;;;;;;21.27;6.37;;;2.30;99.70;;;;;;5030941;28;20448;-65
2022/01/31 03:30:30;;;;;;;20.43;5.60;;;2.30;99.70;;;;;;5031138;28;20452;-65
2022/01/31 03:32:57;;;;;;;17.13;5.93;;;2.60;99.70;;;;;;5031348;28;20467;-65
2022/01/31 03:35:24;;;;;;;16.80;5.90;;;2.50;99.70;;;;;;5031284;28;20518;-66
2022/01/31 03:37:50;;;;;;;17.10;6.33;;;2.50;99.70;;;;;;5030824;28;20475;-65
2022/01/31 03:40:19;;;;;;;14.07;5.90;;;2.50;99.70;;;;;;5031206;28;20444;-65
2022/01/31 03:42:46;;;;;;;14.50;6.37;;;2.40;99.70;;;;;;5031065;28;20468;-65
2022/01/31 03:45:13;;;;;;;17.13;6.40;;;2.30;99.70;;;;;;5031018;28;20448;-65
2022/01/31 03:47:44;;;;;;;16.33;6.43;;;2.30;99.70;;;;;;5030879;28;20456;-63
2022/01/31 03:50:13;;;;;;;16.50;6.80;;;2.30;99.70;;;;;;5031100;28;20924;-65
2022/01/31 03:52:39;;;;;;;17.40;6.30;;;2.40;99.70;;;;;;5031015;28;20468;-65
2022/01/31 03:55:07;;;;;;;16.63;6.57;;;2.50;99.70;;;;;;5031028;28;20852;-66
2022/01/31 03:57:34;;;;;;;16.30;6.40;;;2.40;99.70;;;;;;5031086;28;20445;-65
2022/01/31 04:00:02;;;;;;;21.27;6.73;;;2.40;99.70;;;;;;5030623;28;20967;-66
2022/01/31 04:02:28;;;;;;;14.20;5.77;;;2.50;99.70;;;;;;5030875;28;20563;-65
2022/01/31 04:04:56;;;;;;;16.97;5.97;;;2.70;99.70;;;;;;5030933;28;20998;-66
2022/01/31 04:07:23;;;;;;;11.70;5.87;;;2.80;99.70;;;;;;5030902;28;20453;-65
2022/01/31 04:09:50;;;;;;;14.47;5.97;;;2.70;99.70;;;;;;5029710;28;20456;-65
2022/01/31 04:12:16;;;;;;;21.60;7.07;;;2.60;99.70;;;;;;5030887;28;20802;-66
2022/01/31 04:14:43;;;;;;;15.87;6.70;;;2.50;99.70;;;;;;5030720;28;20483;-65
2022/01/31 04:17:10;;;;;;;14.60;6.30;;;2.60;99.70;;;;;;5030750;28;20828;-66
2022/01/31 04:19:38;;;;;;;15.47;6.97;;;2.70;99.70;;;;;;5030457;28;20444;-65
2022/01/31 04:22:09;;;;;;;16.17;6.60;;;2.70;99.70;;;;;;5030558;28;20487;-65
2022/01/31 04:24:35;;;;;;;17.63;6.57;;;2.70;99.70;;;;;;5033428;28;20558;-66
2022/01/31 04:27:06;;;;;;;21.23;6.83;;;2.60;99.70;;;;;;5034646;28;20440;-65
2022/01/31 04:29:35;;;;;;;15.87;6.70;;;2.50;99.70;;;;;;5034244;28;20440;-65
2022/01/31 04:32:02;;;;;;;19.80;7.30;;;2.50;99.70;;;;;;5034420;28;20468;-65
2022/01/31 04:34:29;;;;;;;17.30;6.30;;;2.50;99.70;;;;;;5034394;28;20476;-65
2022/01/31 04:36:56;;;;;;;18.03;6.80;;;2.60;99.70;;;;;;5034560;28;20806;-65
2022/01/31 04:39:24;;;;;;;14.67;6.23;;;2.70;99.70;;;;;;5034050;28;20448;-65
2022/01/31 04:41:51;;;;;;;21.37;6.93;;;2.80;99.70;;;;;;5034333;28;20464;-65
2022/01/31 04:44:18;;;;;;;17.30;6.13;;;3.00;99.70;;;;;;5034339;28;20459;-64
2022/01/31 04:46:49;;;;;;;14.53;5.97;;;2.80;99.70;;;;;;5034192;28;20853;-65
2022/01/31 04:49:16;;;;;;;15.90;5.97;;;2.80;99.70;;;;;;5034051;28;20440;-65
2022/01/31 04:51:42;;;;;;;14.83;6.10;;;2.70;99.70;;;;;;5034034;28;20939;-66
2022/01/31 04:54:09;;;;;;;14.27;5.70;;;2.90;99.70;;;;;;5034083;28;20967;-65
2022/01/31 04:56:41;;;;;;;15.20;5.67;;;2.90;99.70;;;;;;5034238;28;20552;-65
2022/01/31 04:59:08;;;;;;;18.13;5.97;;;3.00;99.70;;;;;;5033709;28;20491;-65
2022/01/31 05:01:38;;;;;;;14.30;6.67;;;3.00;99.70;;;;;;5034012;28;20468;-65
2022/01/31 05:04:05;;;;;;;11.77;5.77;;;2.90;99.70;;;;;;5034145;28;20930;-65
2022/01/31 05:06:35;;;;;;;13.80;6.60;;;3.00;99.70;;;;;;5033851;28;20436;-65
2022/01/31 05:09:02;;;;;;;14.00;5.20;;;3.10;99.70;;;;;;5032806;28;20448;-66
2022/01/31 05:11:28;;;;;;;11.77;5.07;;;3.00;99.70;;;;;;5033745;28;20463;-64
2022/01/31 05:13:56;;;;;;;20.73;6.27;;;3.00;99.70;;;;;;5033827;28;20455;-65
2022/01/31 05:16:23;;;;;;;13.93;5.40;;;3.10;99.70;;;;;;5033764;28;20871;-65
2022/01/31 05:18:50;;;;;;;15.23;5.73;;;3.20;99.70;;;;;;5033314;28;20927;-65
2022/01/31 05:21:16;;;;;;;14.57;5.33;;;3.30;99.70;;;;;;5033449;28;20480;-65
2022/01/31 05:23:44;;;;;;;13.20;5.60;;;3.10;99.70;;;;;;5033631;28;20472;-63
2022/01/31 05:26:10;;;;;;;14.37;5.60;;;3.30;99.70;;;;;;5033678;28;20441;-66
2022/01/31 05:28:37;;;;;;;13.80;5.93;;;3.20;99.70;;;;;;5033146;28;20441;-65
2022/01/31 05:31:06;;;;;;;20.43;6.00;;;3.50;99.70;;;;;;5033508;28;20840;-65
2022/01/31 05:33:33;;;;;;;16.33;5.60;;;3.30;99.70;;;;;;5033511;28;20448;-66
2022/01/31 05:36:00;;;;;;;15.87;5.40;;;3.20;99.70;;;;;;5032816;28;20480;-65
2022/01/31 05:38:27;;;;;;;14.50;5.00;;;3.30;99.70;;;;;;5033118;28;20483;-64
2022/01/31 05:40:53;;;;;;;13.30;4.70;;;3.60;99.70;;;;;;5030737;28;20578;-65
2022/01/31 05:43:20;;;;;;;11.67;4.70;;;3.70;99.70;;;;;;5031785;28;20444;-65
2022/01/31 05:45:47;;;;;;;10.40;4.50;;;3.60;99.70;;;;;;5024304;28;20480;-65
2022/01/31 05:48:18;;;;;;;9.27;4.20;;;3.60;99.70;;;;;;5030386;28;20547;-65
2022/01/31 05:50:46;;;;;;;9.80;4.27;;;3.60;99.70;;;;;;5025894;28;20582;-65
2022/01/31 05:53:14;;;;;;;14.03;4.70;;;3.70;99.70;;;;;;5032076;28;20487;-65
2022/01/31 05:55:41;;;;;;;11.10;4.40;;;3.80;99.70;;;;;;5032149;28;20487;-64
2022/01/31 05:58:08;;;;;;;12.57;4.60;;;3.70;99.70;;;;;;5031593;28;20480;-65
2022/01/31 06:00:37;;;;;;;12.83;4.70;;;3.80;99.70;;;;;;5028814;28;20867;-65
2022/01/31 06:03:04;;;;;;;9.13;4.20;;;3.80;99.70;;;;;;5031176;28;20448;-65
2022/01/31 06:05:33;;;;;;;10.47;4.33;;;3.80;99.70;;;;;;5030305;28;20503;-65
2022/01/31 06:08:00;;;;;;;12.23;4.27;;;3.80;99.70;;;;;;5031962;28;20445;-65
2022/01/31 06:10:26;;;;;;;10.50;4.67;;;4.00;99.70;;;;;;5028362;28;20451;-65
2022/01/31 06:12:55;;;;;;;13.67;4.97;;;3.80;99.70;;;;;;5031941;28;20461;-66
2022/01/31 06:15:22;;;;;;;8.87;4.00;;;3.90;99.70;;;;;;5031542;28;20480;-65
2022/01/31 06:17:48;;;;;;;9.50;4.40;;;3.90;99.70;;;;;;5031191;28;20453;-65
2022/01/31 06:20:15;;;;;;;12.13;3.83;;;4.00;99.70;;;;;;5030875;28;20964;-65
2022/01/31 06:22:48;;;;;;;13.43;4.13;;;4.00;99.70;;;;;;5031872;28;20803;-65
2022/01/31 06:25:15;;;;;;;15.80;4.60;;;4.10;99.70;;;;;;5031379;28;20967;-65
2022/01/31 06:27:41;;;;;;;10.60;4.23;;;4.00;99.70;;;;;;5032146;28;20499;-65
2022/01/31 06:30:09;;;;;;;14.63;3.90;;;4.00;99.70;;;;;;5031989;28;20443;-65
2022/01/31 06:32:36;;;;;;;10.23;3.90;;;4.30;99.70;;;;;;5032068;28;20544;-64
2022/01/31 06:35:03;;;;;;;11.93;4.20;;;4.20;99.70;;;;;;5031581;28;20480;-64
2022/01/31 06:37:30;;;;;;;11.30;3.90;;;4.10;99.70;;;;;;5032032;28;20522;-65
2022/01/31 06:39:58;;;;;;;11.53;4.30;;;4.10;99.70;;;;;;5031906;28;20506;-65
2022/01/31 06:42:25;;;;;;;10.33;4.07;;;4.10;99.70;;;;;;5032018;28;20468;-65
2022/01/31 06:44:51;;;;;;;9.30;4.30;;;4.00;99.70;;;;;;5032103;28;20783;-65
2022/01/31 06:47:19;;;;;;;10.63;4.10;;;4.00;99.70;;;;;;5031054;28;20516;-66
2022/01/31 06:49:45;;;;;;;12.17;4.50;;;4.00;99.70;;;;;;5031778;28;20463;-65
2022/01/31 06:52:12;;;;;;;12.63;4.40;;;4.00;99.70;;;;;;5031771;28;20892;-65
2022/01/31 06:54:39;;;;;;;13.20;4.10;;;4.10;99.70;;;;;;5031141;28;20445;-65
2022/01/31 06:57:07;;;;;;;14.90;4.30;;;4.10;99.70;;;;;;5030737;28;20894;-65
2022/01/31 06:59:34;;;;;;;13.23;4.80;;;4.10;99.70;;;;;;5030279;28;20482;-65
2022/01/31 07:02:01;;;;;;;14.23;4.70;;;4.10;99.70;;;;;;5029663;28;20968;-65
2022/01/31 07:04:27;;;;;;;12.20;4.53;;;4.00;99.70;;;;;;5031071;28;20455;-65
2022/01/31 07:06:54;;;;;;;12.80;4.60;;;4.00;99.70;;;;;;5031070;28;20453;-66
2022/01/31 07:09:22;;;;;;;9.90;4.33;;;3.90;99.70;;;;;;5030294;28;20457;-64
2022/01/31 07:11:51;;;;;;;12.37;4.40;;;3.90;99.70;;;;;;5031595;28;20557;-65
2022/01/31 07:14:31;;;;;;;17.00;5.43;;;3.90;99.70;;;;;;5031738;28;20448;-65
2022/01/31 07:17:00;;;;;;;14.00;5.23;;;4.00;99.70;;;;;;5031590;28;20484;-65
2022/01/31 07:19:29;;;;;;;12.10;5.07;;;3.90;99.70;;;;;;5031384;28;20449;-65
2022/01/31 07:21:56;;;;;;;16.17;5.73;;;3.90;99.70;;;;;;5030373;28;20489;-65
2022/01/31 07:24:30;;;;;;;15.97;5.70;;;4.00;99.70;;;;;;5031319;28;20838;-65
2022/01/31 07:26:56;;;;;;;15.83;5.47;;;3.90;99.70;;;;;;5031483;28;20534;-65
2022/01/31 07:29:25;;;;;;;17.90;5.97;;;3.90;99.70;;;;;;5031277;28;20441;-65
2022/01/31 07:31:52;;;;;;;15.80;5.50;;;4.00;99.70;;;;;;5031150;28;20523;-66
2022/01/31 07:36:47;;;;;;;12.70;5.13;;;4.00;99.70;;;;;;5026384;28;20949;-66
2022/01/31 07:39:14;;;;;;;10.77;5.27;;;4.00;99.70;;;;;;5030409;28;20823;-65
2022/01/31 07:41:41;;;;;;;16.27;4.80;;;3.90;99.70;;;;;;5031212;28;20499;-65
2022/01/31 07:44:08;;;;;;;11.10;4.60;;;4.00;99.70;;;;;;5031192;28;20444;-65
2022/01/31 07:46:36;;;;;;;11.60;4.53;;;4.00;99.70;;;;;;5031088;28;20453;-66
2022/01/31 07:49:04;;;;;;;12.57;5.37;;;4.00;99.70;;;;;;5030772;28;20447;-65
2022/01/31 07:51:30;;;;;;;11.87;4.77;;;4.00;99.70;;;;;;5030848;28;20462;-65
2022/01/31 07:53:57;;;;;;;14.90;4.77;;;4.00;99.70;;;;;;5031112;28;20889;-65
2022/01/31 07:56:24;;;;;;;11.20;5.37;;;3.90;99.70;;;;;;5029595;28;20830;-65
2022/01/31 07:58:51;;;;;;;12.80;4.60;;;4.00;99.70;;;;;;5029009;28;20839;-65
2022/01/31 08:01:17;;;;;;;12.17;5.10;;;4.00;99.70;;;;;;5029290;28;20857;-67
2022/01/31 08:03:47;;;;;;;13.07;4.70;;;3.90;99.70;;;;;;5029755;28;20451;-65
2022/01/31 08:06:14;;;;;;;11.40;4.30;;;4.00;99.70;;;;;;5030290;28;20824;-65
2022/01/31 08:08:41;;;;;;;11.87;5.03;;;4.10;99.70;;;;;;5029799;28;20448;-65
2022/01/31 08:11:08;;;;;;;13.30;5.40;;;4.10;99.70;;;;;;5030972;28;20452;-64
2022/01/31 08:13:36;;;;;;;8.97;4.23;;;4.10;99.70;;;;;;5030891;28;20452;-65
2022/01/31 08:16:09;;;;;;;15.50;4.57;;;4.00;99.70;;;;;;5030821;28;20480;-65
2022/01/31 08:18:38;;;;;;;9.87;4.40;;;4.00;99.70;;;;;;5030390;28;21011;-65
2022/01/31 08:21:06;;;;;;;11.00;4.30;;;4.00;99.70;;;;;;5030852;28;20720;-64
2022/01/31 08:23:33;;;;;;;14.07;4.90;;;4.00;99.70;;;;;;5030575;28;20445;-66
2022/01/31 08:26:01;;;;;;;8.80;4.13;;;4.10;99.70;;;;;;5028671;28;20472;-65
2022/01/31 08:28:36;;;;;;;9.90;4.03;;;4.10;99.70;;;;;;5024038;28;20467;-65
2022/01/31 08:31:10;;;;;;;13.53;4.57;;;4.10;99.70;;;;;;5026766;28;20939;-65
2022/01/31 08:33:42;;;;;;;9.60;4.00;;;4.10;99.70;;;;;;5030381;28;20455;-65
2022/01/31 08:36:11;;;;;;;7.00;3.60;;;4.00;99.70;;;;;;5028663;28;20926;-66
2022/01/31 08:38:39;;;;;;;10.43;4.13;;;4.00;99.70;;;;;;5010079;28;20543;-65
2022/01/31 08:41:07;;;;;;;10.53;3.90;;;4.10;99.70;;;;;;5010686;28;20941;-66
2022/01/31 08:43:35;;;;;;;9.23;4.27;;;4.20;99.70;;;;;;5010811;28;20448;-65
2022/01/31 08:46:03;;;;;;;8.53;3.50;;;4.20;99.70;;;;;;5029809;28;20514;-65
2022/01/31 08:48:30;;;;;;;7.07;3.10;;;4.20;99.70;;;;;;5029952;28;20440;-64
2022/01/31 08:50:57;;;;;;;6.57;2.80;;;4.20;99.70;;;;;;5030401;28;20531;-65
2022/01/31 08:53:26;;;;;;;6.03;3.00;;;4.30;99.70;;;;;;5030135;28;20475;-65
2022/01/31 08:55:55;;;;;;;6.03;2.50;;;4.20;99.70;;;;;;5030387;28;20511;-64
2022/01/31 08:58:22;;;;;;;5.97;2.50;;;4.30;99.70;;;;;;5029972;28;20445;-65
2022/01/31 09:00:59;;;;;;;5.40;2.20;;;4.30;99.70;;;;;;5030156;28;20451;-66
2022/01/31 09:03:42;;;;;;;5.80;2.07;;;4.30;99.70;;;;;;5029756;28;20467;-65
2022/01/31 09:06:10;;;;;;;4.70;2.10;;;4.40;99.70;;;;;;5030150;28;20555;-65
2022/01/31 09:08:39;;;;;;;5.80;2.30;;;4.30;99.70;;;;;;5028616;28;20444;-64
2022/01/31 09:11:06;;;;;;;4.10;1.80;;;4.40;99.70;;;;;;5031720;28;20913;-65
2022/01/31 09:13:34;;;;;;;6.10;2.10;;;4.40;99.70;;;;;;5033754;28;20441;-65
2022/01/31 09:16:01;;;;;;;4.60;2.07;;;4.60;99.70;;;;;;5033477;28;20516;-65
2022/01/31 09:18:28;;;;;;;3.50;1.80;;;4.60;99.70;;;;;;5033199;28;20448;-65
2022/01/31 09:20:55;;;;;;;5.13;2.00;;;4.60;99.70;;;;;;5033391;28;20448;-65
2022/01/31 09:23:22;;;;;;;3.63;1.90;;;4.60;99.70;;;;;;5030463;28;20479;-65
2022/01/31 09:25:50;;;;;;;5.43;2.23;;;4.60;99.70;;;;;;5033119;28;20469;-66
2022/01/31 09:28:17;;;;;;;4.47;2.10;;;4.60;99.70;;;;;;5033222;28;20444;-65
2022/01/31 09:30:45;;;;;;;3.97;2.20;;;4.60;99.70;;;;;;5032969;28;20804;-65
2022/01/31 09:33:12;;;;;;;4.87;2.20;;;4.80;99.70;;;;;;5033282;28;20543;-66
2022/01/31 09:35:40;;;;;;;5.00;2.50;;;4.90;99.70;;;;;;5032456;28;20885;-66
2022/01/31 09:38:08;;;;;;;3.97;2.10;;;5.00;99.70;;;;;;5032349;28;20452;-65
2022/01/31 09:40:36;;;;;;;7.07;2.30;;;5.30;99.70;;;;;;5032310;28;20454;-65
2022/01/31 09:43:24;;;;;;;4.67;2.20;;;5.40;99.70;;;;;;5033019;28;20827;-66
2022/01/31 09:46:01;;;;;;;4.53;2.20;;;5.50;99.70;;;;;;5032749;28;20501;-66
2022/01/31 09:48:33;;;;;;;3.57;1.80;;;5.50;99.70;;;;;;5032428;28;20472;-66
2022/01/31 09:51:01;;;;;;;6.07;1.87;;;5.40;99.70;;;;;;5032393;28;20449;-65
2022/01/31 09:53:28;;;;;;;5.03;2.60;;;5.50;99.70;;;;;;5032841;28;20468;-66
2022/01/31 09:55:56;;;;;;;6.40;2.90;;;5.50;99.70;;;;;;5031518;28;20471;-66
2022/01/31 09:58:29;;;;;;;3.70;2.00;;;5.50;99.70;;;;;;5030033;28;20544;-66
2022/01/31 10:01:04;;;;;;;4.00;2.13;;;5.50;99.70;;;;;;5030711;28;20574;-66
2022/01/31 10:03:31;;;;;;;3.90;2.07;;;5.50;99.70;;;;;;5031358;28;20440;-66
2022/01/31 10:05:58;;;;;;;4.87;2.43;;;5.40;99.70;;;;;;5031622;28;20465;-66
2022/01/31 10:08:30;;;;;;;5.03;2.47;;;5.40;99.70;;;;;;5030286;28;20452;-65
2022/01/31 10:11:01;;;;;;;7.20;2.70;;;5.40;99.70;;;;;;5031341;28;20480;-66
2022/01/31 10:16:26;;;;;;;5.93;2.50;;;5.40;99.70;;;;;;5032853;28;20476;-66
2022/01/31 10:19:01;;;;;;;3.80;2.10;;;5.40;99.70;;;;;;5032588;28;21078;-66
2022/01/31 10:21:28;;;;;;;5.47;2.27;;;5.40;99.70;;;;;;5032571;28;20819;-66
2022/01/31 10:23:55;;;;;;;4.00;2.20;;;5.20;99.70;;;;;;5032722;28;20467;-66
2022/01/31 10:26:30;;;;;;;7.40;2.30;;;5.30;99.70;;;;;;5032464;28;20471;-66
2022/01/31 10:29:14;;;;;;;5.53;2.20;;;5.40;99.70;;;;;;5029301;28;20468;-65
2022/01/31 10:31:57;;;;;;;5.50;2.30;;;5.40;99.70;;;;;;5031266;28;20449;-66
2022/01/31 10:34:26;;;;;;;4.40;2.30;;;5.40;99.70;;;;;;5031833;28;20825;-65
2022/01/31 10:36:53;;;;;;;4.60;2.33;;;5.40;99.70;;;;;;5031746;28;20905;-66
2022/01/31 10:51:50;;;;;;;7.90;2.50;;;5.50;99.70;;;;;;5031647;28;20970;-65
2022/01/31 10:54:29;;;;;;;4.90;2.70;;;5.50;99.70;;;;;;5026144;28;20448;-66
2022/01/31 10:56:57;;;;;;;6.70;2.33;;;5.70;99.70;;;;;;5021268;28;20567;-67
2022/01/31 10:59:26;;;;;;;8.17;2.60;;;5.70;99.70;;;;;;5030885;28;20498;-65
2022/01/31 11:01:56;;;;;;;8.73;2.33;;;5.60;99.70;;;;;;5031187;28;20451;-66
2022/01/31 11:04:23;;;;;;;7.47;2.77;;;5.60;99.70;;;;;;5031054;28;20452;-65
2022/01/31 11:06:58;;;;;;;5.30;3.37;;;5.70;99.70;;;;;;5030949;28;20452;-66
2022/01/31 11:09:25;;;;;;;4.80;2.63;;;5.80;99.70;;;;;;5029616;28;20444;-65
2022/01/31 11:11:52;;;;;;;4.43;2.30;;;5.90;99.70;;;;;;5031644;28;20444;-66
2022/01/31 11:14:20;;;;;;;9.13;2.17;;;5.80;99.70;;;;;;5031140;28;20460;-66
2022/01/31 11:16:49;;;;;;;5.87;2.50;;;5.80;99.70;;;;;;5019694;28;20564;-66
2022/01/31 11:19:23;;;;;;;5.53;2.10;;;5.90;99.70;;;;;;5030854;28;20857;-66
2022/01/31 11:21:53;;;;;;;4.30;2.20;;;5.90;99.70;;;;;;5020290;28;20506;-66
2022/01/31 11:24:25;;;;;;;6.30;2.13;;;5.80;99.70;;;;;;5031063;28;20456;-66
2022/01/31 11:26:55;;;;;;;5.83;2.37;;;5.90;99.70;;;;;;5020426;28;20499;-66
2022/01/31 11:29:22;;;;;;;3.87;2.03;;;5.90;99.70;;;;;;5042969;28;20462;-67
2022/01/31 11:31:49;;;;;;;5.30;2.30;;;5.80;99.70;;;;;;5031253;28;20453;-66
2022/01/31 11:34:17;;;;;;;4.30;2.00;;;5.80;99.70;;;;;;5030497;28;20448;-64
2022/01/31 11:36:46;;;;;;;5.60;2.30;;;5.90;99.70;;;;;;5030269;28;20481;-65
2022/01/31 11:39:16;;;;;;;6.43;2.13;;;5.80;99.70;;;;;;5030644;28;20498;-65
2022/01/31 11:41:45;;;;;;;7.37;2.30;;;5.70;99.70;;;;;;5031025;28;20489;-65
2022/01/31 11:44:20;;;;;;;4.03;2.17;;;5.80;99.70;;;;;;5030864;28;20456;-66
2022/01/31 11:46:48;;;;;;;7.97;2.17;;;5.70;99.70;;;;;;5019447;28;20444;-65
2022/01/31 11:49:16;;;;;;;4.30;2.00;;;5.60;99.70;;;;;;5030161;28;20452;-64
2022/01/31 11:51:51;;;;;;;5.83;2.93;;;5.60;99.70;;;;;;5030951;28;20951;-65
2022/01/31 11:54:24;;;;;;;6.03;2.50;;;5.60;99.70;;;;;;5030760;28;20448;-65
2022/01/31 11:56:53;;;;;;;6.03;2.40;;;5.50;99.70;;;;;;5019757;28;20641;-65
2022/01/31 11:59:22;;;;;;;3.87;2.10;;;5.40;99.70;;;;;;5030369;28;20452;-66
2022/01/31 12:01:51;;;;;;;3.73;2.00;;;5.40;99.70;;;;;;5019416;28;20480;-65
2022/01/31 12:04:22;;;;;;;3.90;2.00;;;5.60;99.70;;;;;;5030696;28;20531;-66
2022/01/31 12:06:49;;;;;;;7.83;2.83;;;5.50;99.70;;;;;;5027141;28;20451;-65
2022/01/31 12:09:24;;;;;;;4.73;2.60;;;5.40;99.70;;;;;;5029647;28;20461;-66
2022/01/31 12:11:55;;;;;;;6.30;2.00;;;5.30;99.70;;;;;;5019692;28;20444;-65
2022/01/31 12:14:26;;;;;;;6.87;1.90;;;5.30;99.70;;;;;;5030443;28;20527;-65
2022/01/31 12:17:11;;;;;;;3.90;2.00;;;5.30;99.70;;;;;;5030736;28;20964;-65
2022/01/31 12:19:58;;;;;;;6.10;2.17;;;5.30;99.70;;;;;;5028774;28;20454;-65
2022/01/31 12:22:44;;;;;;;5.70;2.17;;;5.30;99.70;;;;;;5030200;28;21007;-65
2022/01/31 12:25:27;;;;;;;4.97;2.30;;;5.30;99.70;;;;;;5030507;28;20472;-66
2022/01/31 12:27:54;;;;;;;4.23;2.20;;;5.20;99.70;;;;;;5029937;28;20812;-65
2022/01/31 12:30:33;;;;;;;4.50;1.90;;;5.20;99.70;;;;;;5023956;28;20461;-64
2022/01/31 12:33:00;;;;;;;3.67;1.80;;;5.20;99.70;;;;;;5031283;28;20440;-66
2022/01/31 12:35:38;;;;;;;5.20;2.07;;;5.20;99.70;;;;;;5032603;28;20479;-65
2022/01/31 12:38:07;;;;;;;4.70;2.03;;;5.30;99.70;;;;;;5028514;28;20481;-66
2022/01/31 12:40:40;;;;;;;9.27;2.13;;;5.30;99.70;;;;;;5029327;28;20448;-65
2022/01/31 12:43:13;;;;;;;4.73;2.03;;;5.20;99.70;;;;;;5028745;28;21003;-65
2022/01/31 12:46:17;;;;;;;11.90;2.30;;;5.20;99.70;;;;;;5030851;28;20514;-66
2022/01/31 12:49:04;;;;;;;5.67;2.30;;;5.30;99.70;;;;;;5033704;28;20451;-66
2022/01/31 12:51:52;;;;;;;6.70;2.40;;;5.20;99.70;;;;;;5052599;28;20459;-66
2022/01/31 12:54:22;;;;;;;5.60;2.20;;;5.10;99.70;;;;;;5031814;28;20451;-66
2022/01/31 12:56:49;;;;;;;5.17;2.30;;;5.10;99.70;;;;;;5033528;28;21120;-65
2022/01/31 12:59:17;;;;;;;7.37;2.10;;;5.20;99.70;;;;;;5039048;28;20454;-65
2022/01/31 13:01:45;;;;;;;6.13;2.50;;;5.20;99.70;;;;;;5045864;28;20942;-66
2022/01/31 13:04:14;;;;;;;6.67;2.47;;;5.20;99.70;;;;;;5034373;28;20457;-66
2022/01/31 13:06:45;;;;;;;4.90;2.40;;;5.10;99.70;;;;;;5037174;28;20956;-66
2022/01/31 13:09:21;;;;;;;5.30;2.20;;;5.10;99.70;;;;;;5032924;28;20429;-65
2022/01/31 13:11:50;;;;;;;5.27;2.13;;;5.20;99.70;;;;;;5031943;28;20879;-66
2022/01/31 13:14:21;;;;;;;5.80;1.80;;;5.20;99.70;;;;;;5030334;28;20433;-66
2022/01/31 13:16:58;;;;;;;5.13;2.20;;;5.00;99.70;;;;;;5035776;28;20459;-65